createdAt,value
2022-07-26T00:00:00.193Z,21.7
2022-07-26T00:05:00.182Z,21.7
2022-07-26T00:10:00.201Z,21.6
2022-07-26T00:15:00.180Z,21.6
2022-07-26T00:20:00.220Z,21.6
2022-07-26T00:25:00.169Z,21.5
2022-07-26T00:30:00.208Z,21.4
2022-07-26T00:35:00.438Z,21.3
2022-07-26T00:40:00.211Z,21.2
2022-07-26T00:45:00.179Z,21.2
2022-07-26T00:50:00.189Z,21.2
2022-07-26T00:55:00.200Z,21.2
2022-07-26T01:00:00.203Z,21.2
2022-07-26T01:05:00.168Z,21.2
2022-07-26T01:10:00.182Z,21.2
2022-07-26T01:15:00.199Z,21.1
2022-07-26T01:20:00.204Z,21.1
2022-07-26T01:25:00.185Z,21
2022-07-26T01:30:00.177Z,20.9
2022-07-26T01:35:00.177Z,20.9
2022-07-26T01:40:00.182Z,20.9
2022-07-26T01:45:00.175Z,20.8
2022-07-26T01:50:00.171Z,20.8
2022-07-26T01:55:00.501Z,20.8
2022-07-26T02:00:00.195Z,20.8
2022-07-26T02:05:01.517Z,20.8
2022-07-26T02:10:01.102Z,20.8
2022-07-26T02:15:00.209Z,20.8
2022-07-26T02:20:00.166Z,20.8
2022-07-26T02:25:04.834Z,20.7
2022-07-26T02:30:00.189Z,20.6
2022-07-26T02:35:00.165Z,20.6
2022-07-26T02:40:00.319Z,20.6
2022-07-26T02:45:00.458Z,20.6
2022-07-26T02:50:00.294Z,20.7
2022-07-26T02:55:00.208Z,20.7
2022-07-26T03:00:00.300Z,20.8
2022-07-26T03:05:00.365Z,20.8
2022-07-26T03:10:00.476Z,20.8
2022-07-26T03:15:00.279Z,20.6
2022-07-26T03:20:00.260Z,20.6
2022-07-26T03:25:00.173Z,20.5
2022-07-26T03:30:00.251Z,20.4
2022-07-26T03:35:00.186Z,20.3
2022-07-26T03:40:00.198Z,20.2
2022-07-26T03:45:00.178Z,20.2
2022-07-26T03:50:00.196Z,20.2
2022-07-26T03:55:00.217Z,20.2
2022-07-26T04:00:00.194Z,20.2
2022-07-26T04:05:00.176Z,20.2
2022-07-26T04:10:00.187Z,20.2
2022-07-26T04:15:00.184Z,20.1
2022-07-26T04:20:00.186Z,20.1
2022-07-26T04:25:00.174Z,20.1
2022-07-26T04:30:00.341Z,20.1
2022-07-26T04:35:00.180Z,20.1
2022-07-26T04:40:00.176Z,20.1
2022-07-26T04:45:04.401Z,20.1
2022-07-26T04:50:00.264Z,20
2022-07-26T04:55:00.947Z,20.1
2022-07-26T05:00:20.299Z,20.1
2022-07-26T05:05:00.188Z,20.1
2022-07-26T05:10:00.179Z,20.1
2022-07-26T05:15:00.182Z,20.1
2022-07-26T05:20:03.210Z,20.2
2022-07-26T05:25:00.184Z,20.3
2022-07-26T05:30:00.170Z,20.4
2022-07-26T05:35:00.166Z,20.4
2022-07-26T05:40:01.571Z,20.5
2022-07-26T05:45:00.645Z,20.5
2022-07-26T05:50:00.241Z,20.6
2022-07-26T05:55:00.320Z,20.6
2022-07-26T06:00:00.192Z,20.5
2022-07-26T06:05:00.173Z,20.8
2022-07-26T06:10:00.193Z,21
2022-07-26T06:15:00.180Z,21.2
2022-07-26T06:20:00.176Z,21.2
2022-07-26T06:25:00.194Z,21.2
2022-07-26T06:30:00.291Z,21.2
2022-07-26T06:35:00.179Z,21.3
2022-07-26T06:40:00.193Z,21.4
2022-07-26T06:45:00.150Z,21.8
2022-07-26T06:50:00.178Z,21.7
2022-07-26T06:55:00.228Z,21.8
2022-07-26T07:00:00.199Z,21.9
2022-07-26T07:05:00.338Z,21.9
2022-07-26T07:10:00.155Z,22.1
2022-07-26T07:15:00.180Z,22
2022-07-26T07:20:01.204Z,21.9
2022-07-26T07:25:00.198Z,22
2022-07-26T07:30:00.196Z,22.3
2022-07-26T07:35:00.183Z,22.6
2022-07-26T07:40:00.169Z,22.6
2022-07-26T07:45:00.170Z,22.6
2022-07-26T07:50:00.176Z,22.7
2022-07-26T07:55:21.847Z,22.4
2022-07-26T08:00:00.267Z,22.2
2022-07-26T08:05:11.289Z,22
2022-07-26T08:10:00.244Z,21.8
2022-07-26T08:15:00.168Z,21.8
2022-07-26T08:20:00.187Z,21.8
2022-07-26T08:25:00.265Z,22.2
2022-07-26T08:30:00.408Z,22.8
2022-07-26T08:35:17.781Z,23.5
2022-07-26T08:40:00.429Z,24.1
2022-07-26T08:45:00.438Z,23.4
2022-07-26T08:50:00.330Z,22.9
2022-07-26T08:55:00.413Z,22.7
2022-07-26T09:00:00.461Z,22.3
2022-07-26T09:05:00.202Z,22.2
2022-07-26T09:10:00.242Z,22.2
2022-07-26T09:15:00.180Z,22.4
2022-07-26T09:20:00.176Z,22.5
2022-07-26T09:25:00.183Z,22.6
2022-07-26T09:30:00.179Z,22.6
2022-07-26T09:35:00.517Z,23.2
2022-07-26T09:40:00.768Z,24.2
2022-07-26T09:45:00.177Z,25.1
2022-07-26T09:50:00.296Z,25.2
2022-07-26T09:55:00.272Z,24.9
2022-07-26T10:00:00.183Z,24.9
2022-07-26T10:05:00.209Z,24.9
2022-07-26T11:40:00.227Z,26.6
2022-07-26T13:10:31.260Z,27.8
2022-07-26T13:15:01.347Z,28.3
2022-07-26T13:34:35.236Z,27.6
2022-07-26T13:39:11.765Z,27.7
2022-07-26T13:43:48.817Z,27.5
2022-07-26T13:48:25.683Z,27.4
2022-07-26T13:53:02.492Z,27.4
2022-07-26T13:57:49.587Z,27.7
2022-07-26T14:02:16.487Z,27.9
2022-07-26T14:06:53.286Z,27.8
2022-07-26T14:11:30.691Z,27.6
2022-07-26T14:16:07.186Z,27.6
2022-07-26T14:20:44.029Z,27.6
2022-07-26T14:25:20.986Z,27.7
2022-07-26T14:29:57.942Z,27.9
2022-07-26T14:34:34.824Z,28
2022-07-26T14:39:11.786Z,27.6
2022-07-26T14:43:54.090Z,27.8
2022-07-26T14:48:51.781Z,27.6
2022-07-26T14:53:02.572Z,27.3
2022-07-26T14:57:41.720Z,27.2
2022-07-26T15:02:16.757Z,27.2
2022-07-26T15:06:53.259Z,28.2
2022-07-26T15:11:30.214Z,28.2
2022-07-26T15:16:08.359Z,27.8
2022-07-26T15:20:44.052Z,27.5
2022-07-26T15:25:20.948Z,30.8
2022-07-26T15:30:03.387Z,30.9
2022-07-26T15:34:34.799Z,29.2
2022-07-26T15:39:17.197Z,28.7
2022-07-26T15:43:49.306Z,28.5
2022-07-26T15:48:25.652Z,28.2
2022-07-26T15:53:02.490Z,28.1
2022-07-26T15:57:40.325Z,28.1
2022-07-26T16:02:16.386Z,27.9
2022-07-26T16:06:53.285Z,28.1
2022-07-26T16:11:30.203Z,28.3
2022-07-26T16:16:07.150Z,28.5
2022-07-26T16:20:44.029Z,28.7
2022-07-26T16:25:20.979Z,28.8
2022-07-26T16:29:57.870Z,28.7
2022-07-26T16:34:34.840Z,28.7
2022-07-26T16:39:12.712Z,28.8
2022-07-26T16:43:48.640Z,31.1
2022-07-26T16:48:25.611Z,34.3
2022-07-26T16:53:03.464Z,36.8
2022-07-26T16:57:39.519Z,37.2
2022-07-26T17:02:16.571Z,38
2022-07-26T17:07:22.182Z,38.8
2022-07-26T17:11:32.256Z,38.2
2022-07-26T17:16:07.220Z,36
2022-07-26T17:20:44.148Z,33.4
2022-07-26T17:25:21.074Z,31.6
2022-07-26T17:29:59.856Z,30.3
2022-07-26T17:34:34.887Z,29.3
2022-07-26T17:39:15.109Z,28.6
2022-07-26T17:43:48.684Z,27.9
2022-07-26T17:48:25.560Z,27.3
2022-07-26T17:53:02.576Z,26.7
2022-07-26T17:57:39.513Z,26.2
2022-07-26T18:02:16.407Z,25.9
2022-07-26T18:06:53.292Z,25.6
2022-07-26T18:11:30.207Z,25.1
2022-07-26T18:16:07.298Z,24.8
2022-07-26T18:20:44.025Z,24.4
2022-07-26T18:25:20.985Z,24.2
2022-07-26T18:29:57.867Z,24
2022-07-26T18:34:34.833Z,23.8
2022-07-26T18:39:12.103Z,23.6
2022-07-26T18:43:48.680Z,23.5
2022-07-26T18:48:25.600Z,23.4
2022-07-26T18:53:02.483Z,23.3
2022-07-26T18:57:39.440Z,23.2
2022-07-26T19:02:16.330Z,23
2022-07-26T19:06:53.282Z,22.8
2022-07-26T19:11:30.234Z,22.4
2022-07-26T19:16:07.215Z,22.3
2022-07-26T19:20:44.066Z,22.2
2022-07-26T19:25:20.947Z,22.1
2022-07-26T19:29:58.857Z,21.9
2022-07-26T19:34:34.849Z,21.9
2022-07-26T19:39:12.154Z,21.8
2022-07-26T19:43:48.638Z,21.6
2022-07-26T19:48:25.594Z,21.4
2022-07-26T19:53:02.489Z,21.3
2022-07-26T19:57:39.440Z,21.3
2022-07-26T20:02:16.383Z,21.2
2022-07-26T20:06:53.285Z,21.2
2022-07-26T20:11:30.174Z,21.1
2022-07-26T20:16:07.953Z,21.1
2022-07-26T20:20:44.038Z,21
2022-07-26T20:25:21.915Z,20.8
2022-07-26T20:30:01.127Z,20.4
2022-07-26T20:34:34.815Z,20.1
2022-07-26T20:39:12.254Z,19.9
2022-07-26T20:43:48.635Z,19.8
2022-07-26T20:48:25.578Z,19.7
2022-07-26T20:53:02.483Z,19.4
2022-07-26T20:57:39.443Z,19.2
2022-07-26T21:02:16.406Z,19.2
2022-07-26T21:06:53.277Z,19.1
2022-07-26T21:11:30.176Z,19
2022-07-26T21:16:09.848Z,18.9
2022-07-26T21:20:44.050Z,18.8
2022-07-26T21:25:20.964Z,18.7
2022-07-26T21:29:57.896Z,18.6
2022-07-26T21:34:34.810Z,18.5
2022-07-26T21:39:12.154Z,18.4
2022-07-26T21:43:48.680Z,18.4
2022-07-26T21:48:25.586Z,18.3
2022-07-26T21:53:02.487Z,18.2
2022-07-26T21:57:39.436Z,18.2
2022-07-26T22:02:19.974Z,18.2
2022-07-26T22:06:53.275Z,18.2
2022-07-26T22:11:30.174Z,18.2
2022-07-26T22:16:07.210Z,18.1
2022-07-26T22:20:44.104Z,18.1
2022-07-26T22:25:21.056Z,18.2
2022-07-26T22:29:57.966Z,18.2
2022-07-26T22:34:34.874Z,18.3
2022-07-26T22:39:12.356Z,18.4
2022-07-26T22:43:48.705Z,18.4
2022-07-26T22:48:25.595Z,18.5
2022-07-26T22:53:02.527Z,18.5
2022-07-26T22:57:39.407Z,18.4
2022-07-26T23:02:16.368Z,18.4
2022-07-26T23:06:54.855Z,18.3
2022-07-26T23:11:30.815Z,18.3
2022-07-26T23:16:07.177Z,18.3
2022-07-26T23:20:44.047Z,18.3
2022-07-26T23:25:20.945Z,18.3
2022-07-26T23:29:57.954Z,18.3
2022-07-26T23:34:34.822Z,18.2
2022-07-26T23:39:12.093Z,18.2
2022-07-26T23:43:48.636Z,18.1
2022-07-26T23:48:25.586Z,18.1
2022-07-26T23:53:03.387Z,17.9
2022-07-26T23:57:39.441Z,17.8
